Time;durP1;ratioP1;P1;durP2;ratioP2;P2;SDS_P1;SDS_P2;PMS_P1;PMS_P2;Temp;Humidity;BMP_temperature;BMP_pressure;BME280_temperature;BME280_humidity;BME280_pressure;Samples;Min_cycle;Max_cycle;Signal;HPM_P1;HPM_P2
2022/09/09 00:00:18;;;;;;;28.52;15.30;;;;;;;;;;5132966;27;20168;-64
2022/09/09 00:02:54;;;;;;;24.35;14.73;;;;;;;;;;5131823;27;20043;-63
2022/09/09 00:05:33;;;;;;;26.92;14.68;;;;;;;;;;5122751;27;20122;-64
2022/09/09 00:08:04;;;;;;;24.10;14.07;;;;;;;;;;5141122;27;20055;-64
2022/09/09 00:10:42;;;;;;;27.73;14.77;;;;;;;;;;5130987;27;20043;-64
2022/09/09 00:13:23;;;;;;;24.30;14.23;;;;;;;;;;5147041;27;20039;-64
2022/09/09 00:15:52;;;;;;;24.52;14.48;;;;;;;;;;5138405;27;21826;-64
2022/09/09 00:18:37;;;;;;;24.25;15.23;;;;;;;;;;5143224;27;20862;-64
2022/09/09 00:21:17;;;;;;;22.60;14.75;;;;;;;;;;5140642;27;20343;-64
2022/09/09 00:23:47;;;;;;;26.15;15.50;;;;;;;;;;5150269;27;20061;-64
2022/09/09 00:26:36;;;;;;;25.73;15.55;;;;;;;;;;5121081;27;20042;-63
2022/09/09 00:29:08;;;;;;;25.40;16.20;;;;;;;;;;5151243;27;20086;-65
2022/09/09 00:31:37;;;;;;;26.98;16.08;;;;;;;;;;5145172;27;20042;-64
2022/09/09 00:34:23;;;;;;;27.58;15.57;;;;;;;;;;5150258;27;20515;-65
2022/09/09 00:36:52;;;;;;;27.92;15.93;;;;;;;;;;5147540;27;20107;-64
2022/09/09 00:39:37;;;;;;;28.48;16.10;;;;;;;;;;5149685;27;20046;-64
2022/09/09 00:42:15;;;;;;;29.17;17.60;;;;;;;;;;5128675;27;20401;-65
2022/09/09 00:44:51;;;;;;;22.75;15.85;;;;;;;;;;5150402;27;20046;-64
2022/09/09 00:47:18;;;;;;;30.42;17.90;;;;;;;;;;5106685;27;20061;-64
2022/09/09 00:50:03;;;;;;;25.50;16.50;;;;;;;;;;5132285;27;20440;-63
2022/09/09 00:52:40;;;;;;;25.67;16.58;;;;;;;;;;5129909;27;20055;-64
2022/09/09 00:55:25;;;;;;;32.15;17.85;;;;;;;;;;5145884;27;20043;-65
2022/09/09 00:57:52;;;;;;;26.95;16.27;;;;;;;;;;5145278;27;20131;-64
2022/09/09 01:00:19;;;;;;;28.15;16.40;;;;;;;;;;5148096;27;20045;-64
2022/09/09 01:02:44;;;;;;;;;;;;;;;;;;5148319;27;20110;-64
2022/09/09 01:05:13;;;;;;;22.13;15.00;;;;;;;;;;5150251;27;19918;-64
2022/09/09 01:07:41;;;;;;;21.92;14.52;;;;;;;;;;5125275;27;20046;-64
2022/09/09 01:10:18;;;;;;;22.02;14.35;;;;;;;;;;5149364;27;20482;-64
2022/09/09 01:12:47;;;;;;;24.45;14.48;;;;;;;;;;5148641;27;20046;-64
2022/09/09 01:15:17;;;;;;;23.48;14.85;;;;;;;;;;5149604;27;20549;-65
2022/09/09 01:17:58;;;;;;;21.75;14.82;;;;;;;;;;5146238;27;20042;-64
2022/09/09 01:20:26;;;;;;;25.55;15.55;;;;;;;;;;5148710;27;20106;-63
2022/09/09 01:23:07;;;;;;;23.30;15.40;;;;;;;;;;5148175;27;20047;-64
2022/09/09 01:25:53;;;;;;;25.73;15.43;;;;;;;;;;5147340;27;20054;-64
2022/09/09 01:28:25;;;;;;;24.85;15.30;;;;;;;;;;5143866;27;20062;-64
2022/09/09 01:30:52;;;;;;;25.42;14.68;;;;;;;;;;5131610;27;20426;-64
2022/09/09 01:33:18;;;;;;;29.67;15.27;;;;;;;;;;5118541;27;20127;-64
2022/09/09 01:35:51;;;;;;;27.08;16.42;;;;;;;;;;5140032;27;20050;-64
2022/09/09 01:38:17;;;;;;;27.70;15.25;;;;;;;;;;5145745;27;20039;-64
2022/09/09 01:40:44;;;;;;;29.13;14.73;;;;;;;;;;5131086;27;20100;-64
2022/09/09 01:43:10;;;;;;;24.63;14.88;;;;;;;;;;5137775;27;20054;-64
2022/09/09 01:45:41;;;;;;;22.80;14.43;;;;;;;;;;5135369;27;20034;-64
2022/09/09 01:48:08;;;;;;;23.17;13.70;;;;;;;;;;5148245;27;20070;-64
2022/09/09 01:50:34;;;;;;;23.52;14.15;;;;;;;;;;5144869;27;20127;-64
2022/09/09 01:53:01;;;;;;;22.63;13.63;;;;;;;;;;5137044;27;20470;-64
2022/09/09 01:55:33;;;;;;;22.95;13.23;;;;;;;;;;5114123;27;20093;-64
2022/09/09 01:58:08;;;;;;;25.00;14.57;;;;;;;;;;5138771;27;20056;-63
2022/09/09 02:00:37;;;;;;;25.03;15.20;;;;;;;;;;5136022;27;20121;-65
2022/09/09 02:03:11;;;;;;;24.25;15.05;;;;;;;;;;5124273;27;20106;-64
2022/09/09 02:05:39;;;;;;;27.58;15.98;;;;;;;;;;5152643;27;20051;-64
2022/09/09 02:08:09;;;;;;;25.23;14.68;;;;;;;;;;5151097;27;20374;-64
2022/09/09 02:10:35;;;;;;;27.00;16.08;;;;;;;;;;5151257;27;20065;-64
2022/09/09 02:13:04;;;;;;;30.33;15.77;;;;;;;;;;5153163;27;20123;-64
2022/09/09 02:15:36;;;;;;;25.20;16.40;;;;;;;;;;5152913;27;20035;-65
2022/09/09 02:18:07;;;;;;;25.75;15.40;;;;;;;;;;5153496;27;20042;-65
2022/09/09 02:20:33;;;;;;;27.48;17.30;;;;;;;;;;5142704;27;20051;-65
2022/09/09 02:22:59;;;;;;;;;;;;;;;;;;5129516;27;20163;-66
2022/09/09 02:25:27;;;;;;;25.98;16.52;;;;;;;;;;5133737;27;19999;-65
2022/09/09 02:27:53;;;;;;;26.63;17.20;;;;;;;;;;5149643;27;20312;-65
2022/09/09 02:30:20;;;;;;;27.80;17.33;;;;;;;;;;5119050;27;20046;-66
2022/09/09 02:32:47;;;;;;;29.30;17.15;;;;;;;;;;5152363;27;20043;-65
2022/09/09 02:35:14;;;;;;;27.42;17.63;;;;;;;;;;5153781;27;20146;-66
2022/09/09 02:37:45;;;;;;;29.75;19.05;;;;;;;;;;5151712;27;20513;-65
2022/09/09 02:40:13;;;;;;;28.42;17.95;;;;;;;;;;5152522;27;20451;-65
2022/09/09 02:42:49;;;;;;;24.23;17.27;;;;;;;;;;5150627;27;20050;-66
2022/09/09 02:45:26;;;;;;;28.83;17.40;;;;;;;;;;5135054;27;20047;-66
2022/09/09 02:48:04;;;;;;;30.02;19.05;;;;;;;;;;5147143;27;20043;-67
2022/09/09 02:50:34;;;;;;;26.88;17.55;;;;;;;;;;5152196;27;20062;-68
2022/09/09 02:53:12;;;;;;;31.75;18.70;;;;;;;;;;5142492;27;20081;-68
2022/09/09 02:55:39;;;;;;;28.85;17.13;;;;;;;;;;5152481;27;20051;-67
2022/09/09 02:58:09;;;;;;;31.17;17.85;;;;;;;;;;5151545;27;20043;-67
2022/09/09 03:00:36;;;;;;;29.05;17.67;;;;;;;;;;5143782;27;20081;-67
2022/09/09 03:03:03;;;;;;;28.20;16.98;;;;;;;;;;5144037;27;20054;-67
2022/09/09 03:05:29;;;;;;;26.45;17.63;;;;;;;;;;5148200;27;20094;-67
2022/09/09 03:07:56;;;;;;;23.70;16.25;;;;;;;;;;5133340;27;20047;-66
2022/09/09 03:10:23;;;;;;;26.38;17.92;;;;;;;;;;5151644;27;20038;-67
2022/09/09 03:12:50;;;;;;;24.17;16.42;;;;;;;;;;5132938;27;20047;-67
2022/09/09 03:15:16;;;;;;;29.27;17.48;;;;;;;;;;5146604;27;20449;-67
2022/09/09 03:17:42;;;;;;;26.77;16.35;;;;;;;;;;5151290;27;20113;-67
2022/09/09 03:20:08;;;;;;;26.50;16.25;;;;;;;;;;5152771;27;20047;-67
2022/09/09 03:22:34;;;;;;;;;;;;;;;;;;5151438;27;20415;-67
2022/09/09 03:25:02;;;;;;;27.80;16.33;;;;;;;;;;5146979;27;20042;-67
2022/09/09 03:27:31;;;;;;;25.15;15.38;;;;;;;;;;5133536;27;20055;-67
2022/09/09 03:29:57;;;;;;;26.65;16.20;;;;;;;;;;5152674;27;20129;-67
2022/09/09 03:32:25;;;;;;;24.75;15.57;;;;;;;;;;5151608;27;20050;-67
2022/09/09 03:34:52;;;;;;;22.45;14.35;;;;;;;;;;5148572;27;20423;-67
2022/09/09 03:37:18;;;;;;;23.83;14.50;;;;;;;;;;5143411;27;20042;-67
2022/09/09 03:39:44;;;;;;;23.60;14.98;;;;;;;;;;5151868;27;20151;-67
2022/09/09 03:42:13;;;;;;;29.20;14.57;;;;;;;;;;5152421;27;20080;-66
2022/09/09 03:44:41;;;;;;;23.20;14.63;;;;;;;;;;5150966;27;20119;-67
2022/09/09 03:47:08;;;;;;;24.13;13.80;;;;;;;;;;5145369;27;20051;-67
2022/09/09 03:49:33;;;;;;;;;;;;;;;;;;5150963;27;20411;-68
2022/09/09 03:52:00;;;;;;;22.48;11.85;;;;;;;;;;5136464;27;19958;-68
2022/09/09 03:54:27;;;;;;;24.00;11.70;;;;;;;;;;5147632;27;20370;-68
2022/09/09 03:56:53;;;;;;;;;;;;;;;;;;5151262;27;20047;-67
2022/09/09 03:59:20;;;;;;;22.85;11.40;;;;;;;;;;5150713;27;19925;-66
2022/09/09 04:01:47;;;;;;;18.67;10.20;;;;;;;;;;5120343;27;20151;-68
2022/09/09 04:04:13;;;;;;;22.92;10.50;;;;;;;;;;5145398;27;20457;-68
2022/09/09 04:06:39;;;;;;;19.17;8.95;;;;;;;;;;5151585;27;20452;-69
2022/09/09 04:09:05;;;;;;;;;;;;;;;;;;5149119;27;20047;-69
2022/09/09 04:11:31;;;;;;;18.95;8.32;;;;;;;;;;5151745;27;19919;-69
2022/09/09 04:13:57;;;;;;;18.83;8.77;;;;;;;;;;5145463;27;20039;-67
2022/09/09 04:16:23;;;;;;;19.45;8.02;;;;;;;;;;5133234;27;20047;-68
2022/09/09 04:18:49;;;;;;;15.15;7.68;;;;;;;;;;5149036;27;20119;-67
2022/09/09 04:21:15;;;;;;;17.20;7.72;;;;;;;;;;5147844;27;20058;-67
2022/09/09 04:23:41;;;;;;;;;;;;;;;;;;5144573;27;20195;-68
2022/09/09 04:26:08;;;;;;;18.17;7.40;;;;;;;;;;5151039;27;20331;-68
2022/09/09 04:28:36;;;;;;;16.77;7.80;;;;;;;;;;5149465;27;20125;-68
2022/09/09 04:31:09;;;;;;;17.80;7.30;;;;;;;;;;5150550;27;20061;-67
2022/09/09 04:33:35;;;;;;;18.70;7.40;;;;;;;;;;5147135;27;20050;-68
2022/09/09 04:36:01;;;;;;;;;;;;;;;;;;5152050;27;20400;-67
2022/09/09 04:38:29;;;;;;;17.02;6.88;;;;;;;;;;5150089;27;19983;-67
2022/09/09 04:40:55;;;;;;;17.85;7.45;;;;;;;;;;5149709;27;20356;-67
2022/09/09 04:43:22;;;;;;;17.50;8.23;;;;;;;;;;5148354;27;20081;-67
2022/09/09 04:45:49;;;;;;;16.13;7.47;;;;;;;;;;5150269;27;20134;-67
2022/09/09 04:48:15;;;;;;;15.88;7.78;;;;;;;;;;5148807;27;20115;-68
2022/09/09 04:50:41;;;;;;;;;;;;;;;;;;5129149;27;20129;-67
2022/09/09 04:53:07;;;;;;;14.30;7.65;;;;;;;;;;5150839;27;19919;-67
2022/09/09 04:55:34;;;;;;;21.73;8.80;;;;;;;;;;5115627;27;20442;-68
2022/09/09 04:58:07;;;;;;;18.73;8.80;;;;;;;;;;5110500;27;20055;-68
2022/09/09 05:00:35;;;;;;;19.70;8.85;;;;;;;;;;5146396;27;20050;-67
2022/09/09 05:03:05;;;;;;;17.88;9.98;;;;;;;;;;5147826;27;20185;-67
2022/09/09 05:05:31;;;;;;;17.98;9.45;;;;;;;;;;5139504;27;20081;-66
2022/09/09 05:08:04;;;;;;;18.50;9.02;;;;;;;;;;5130794;27;20058;-66
2022/09/09 05:10:31;;;;;;;17.75;9.25;;;;;;;;;;5142805;27;20154;-67
2022/09/09 05:12:57;;;;;;;22.10;9.77;;;;;;;;;;5149639;27;20043;-67
2022/09/09 05:15:24;;;;;;;20.83;10.48;;;;;;;;;;5147984;27;20122;-67
2022/09/09 05:17:52;;;;;;;19.50;10.48;;;;;;;;;;5137015;27;20118;-67
2022/09/09 05:20:18;;;;;;;25.30;11.23;;;;;;;;;;5140308;27;20043;-66
2022/09/09 05:22:44;;;;;;;;;;;;;;;;;;5145555;27;20065;-67
2022/09/09 05:25:10;;;;;;;20.60;10.75;;;;;;;;;;5122622;27;19919;-69
2022/09/09 05:27:37;;;;;;;19.42;11.07;;;;;;;;;;5135784;27;20350;-66
2022/09/09 05:30:04;;;;;;;22.45;11.75;;;;;;;;;;5138204;27;20222;-67
2022/09/09 05:32:33;;;;;;;19.52;11.32;;;;;;;;;;5117161;27;20188;-66
2022/09/09 05:34:59;;;;;;;22.92;12.15;;;;;;;;;;5145988;27;20066;-67
2022/09/09 05:37:25;;;;;;;22.45;12.30;;;;;;;;;;5145899;27;20522;-65
2022/09/09 05:39:51;;;;;;;22.90;12.30;;;;;;;;;;5146226;27;20166;-66
2022/09/09 05:42:17;;;;;;;22.42;12.93;;;;;;;;;;5141061;27;20090;-66
2022/09/09 05:44:44;;;;;;;21.85;12.68;;;;;;;;;;5141173;27;20062;-68
2022/09/09 05:47:11;;;;;;;25.02;13.38;;;;;;;;;;5127955;27;20054;-67
2022/09/09 05:49:37;;;;;;;25.55;13.60;;;;;;;;;;5145991;27;20039;-67
2022/09/09 05:52:03;;;;;;;26.45;13.82;;;;;;;;;;5137970;27;20126;-68
2022/09/09 05:54:30;;;;;;;22.02;14.00;;;;;;;;;;5144744;27;20142;-68
2022/09/09 05:56:56;;;;;;;;;;;;;;;;;;5147953;27;20117;-68
2022/09/09 05:59:23;;;;;;;25.63;15.15;;;;;;;;;;5143285;27;20006;-68
2022/09/09 06:01:49;;;;;;;25.35;15.50;;;;;;;;;;5143417;27;20112;-69
2022/09/09 06:04:16;;;;;;;24.85;14.60;;;;;;;;;;5134305;27;20054;-69
2022/09/09 06:06:42;;;;;;;23.05;14.90;;;;;;;;;;5134986;27;20051;-69
2022/09/09 06:09:10;;;;;;;25.05;14.75;;;;;;;;;;5140212;27;20050;-69
2022/09/09 06:11:37;;;;;;;26.60;14.48;;;;;;;;;;5147233;27;20406;-69
2022/09/09 06:14:03;;;;;;;27.70;14.52;;;;;;;;;;5139864;27;20058;-69
2022/09/09 06:16:32;;;;;;;24.15;14.48;;;;;;;;;;5104744;27;20070;-68
2022/09/09 06:18:59;;;;;;;25.83;14.35;;;;;;;;;;5110423;27;20047;-69
2022/09/09 06:21:25;;;;;;;23.00;14.25;;;;;;;;;;5146819;27;20050;-68
2022/09/09 06:23:52;;;;;;;25.23;13.95;;;;;;;;;;5117023;27;20179;-68
2022/09/09 06:26:20;;;;;;;22.05;14.18;;;;;;;;;;5144404;27;20474;-70
2022/09/09 06:28:47;;;;;;;24.88;14.93;;;;;;;;;;5143516;27;20072;-70
2022/09/09 06:31:16;;;;;;;24.15;13.27;;;;;;;;;;5135504;27;20050;-70
2022/09/09 06:33:43;;;;;;;24.73;13.85;;;;;;;;;;5141524;27;20099;-68
2022/09/09 06:36:14;;;;;;;19.98;12.38;;;;;;;;;;5141983;27;20111;-68
2022/09/09 06:38:41;;;;;;;25.50;13.18;;;;;;;;;;5132101;27;20051;-70
2022/09/09 06:41:09;;;;;;;26.23;14.43;;;;;;;;;;5140978;27;20124;-69
2022/09/09 06:43:35;;;;;;;22.63;13.02;;;;;;;;;;5142200;27;20123;-68
2022/09/09 06:46:03;;;;;;;21.70;12.65;;;;;;;;;;5142634;27;20111;-70
2022/09/09 06:48:29;;;;;;;20.77;12.93;;;;;;;;;;5138634;27;20455;-69
2022/09/09 06:51:09;;;;;;;22.25;12.60;;;;;;;;;;5142575;27;20064;-70
2022/09/09 06:53:38;;;;;;;31.77;14.00;;;;;;;;;;5132396;27;20046;-69
2022/09/09 06:56:10;;;;;;;20.45;13.02;;;;;;;;;;5151338;27;20091;-70
2022/09/09 06:58:37;;;;;;;21.17;13.05;;;;;;;;;;5146258;27;20031;-67
2022/09/09 07:01:06;;;;;;;21.42;12.35;;;;;;;;;;5150080;27;20399;-69
2022/09/09 07:03:33;;;;;;;23.23;13.30;;;;;;;;;;5130587;27;20070;-68
2022/09/09 07:06:00;;;;;;;19.70;12.65;;;;;;;;;;5152048;27;20191;-70
2022/09/09 07:08:26;;;;;;;20.23;12.98;;;;;;;;;;5137242;27;20431;-70
2022/09/09 07:10:59;;;;;;;18.98;11.75;;;;;;;;;;5112724;27;20043;-68
2022/09/09 07:13:26;;;;;;;21.08;11.90;;;;;;;;;;5115933;27;20061;-70
2022/09/09 07:15:53;;;;;;;20.67;11.75;;;;;;;;;;5131169;27;20062;-70
2022/09/09 07:18:20;;;;;;;19.48;12.18;;;;;;;;;;5118279;27;20038;-69
2022/09/09 07:20:57;;;;;;;21.65;11.20;;;;;;;;;;5150687;27;20192;-70
2022/09/09 07:23:23;;;;;;;23.50;11.65;;;;;;;;;;5148017;27;20054;-69
2022/09/09 07:25:50;;;;;;;25.58;11.90;;;;;;;;;;5149805;27;20087;-68
2022/09/09 07:28:17;;;;;;;19.90;11.43;;;;;;;;;;5150216;27;20420;-69
2022/09/09 07:30:43;;;;;;;17.23;11.05;;;;;;;;;;5151909;27;20055;-68
2022/09/09 07:33:12;;;;;;;19.88;11.65;;;;;;;;;;5130834;27;20054;-68
2022/09/09 07:35:39;;;;;;;20.63;11.43;;;;;;;;;;5133672;27;20043;-69
2022/09/09 07:38:06;;;;;;;;;;;;;;;;;;5125390;27;20354;-69
2022/09/09 07:40:32;;;;;;;;;;;;;;;;;;5143850;27;20070;-70
2022/09/09 07:42:59;;;;;;;21.70;11.30;;;;;;;;;;5126279;27;20007;-69
2022/09/09 07:45:28;;;;;;;21.02;11.30;;;;;;;;;;5134748;27;20452;-71
2022/09/09 07:47:56;;;;;;;16.75;10.38;;;;;;;;;;5125543;27;20118;-71
2022/09/09 07:50:23;;;;;;;18.00;10.23;;;;;;;;;;5142895;27;20070;-67
2022/09/09 07:52:49;;;;;;;17.35;10.43;;;;;;;;;;5138144;27;20050;-71
2022/09/09 07:55:15;;;;;;;;;;;;;;;;;;5132237;27;20082;-70
2022/09/09 07:57:41;;;;;;;17.20;9.88;;;;;;;;;;5144160;27;19981;-70
2022/09/09 08:00:08;;;;;;;17.75;10.88;;;;;;;;;;5150101;27;20057;-70
2022/09/09 08:02:37;;;;;;;19.10;10.48;;;;;;;;;;5130762;27;20038;-71
2022/09/09 08:05:03;;;;;;;19.63;10.57;;;;;;;;;;5150938;27;20062;-70
2022/09/09 08:07:30;;;;;;;17.80;9.15;;;;;;;;;;5150514;27;20074;-70
2022/09/09 08:09:57;;;;;;;17.23;9.25;;;;;;;;;;5149694;27;20058;-69
2022/09/09 08:12:23;;;;;;;19.08;9.43;;;;;;;;;;5150233;27;20488;-70
2022/09/09 08:14:49;;;;;;;;;;;;;;;;;;5148949;27;20168;-69
2022/09/09 08:17:15;;;;;;;17.48;9.10;;;;;;;;;;5150269;27;19995;-68
2022/09/09 08:19:41;;;;;;;18.40;10.18;;;;;;;;;;5148760;27;20094;-69
2022/09/09 08:22:08;;;;;;;19.08;9.48;;;;;;;;;;5143055;27;20050;-69
2022/09/09 08:24:35;;;;;;;18.38;8.75;;;;;;;;;;5141889;27;20047;-71
2022/09/09 08:27:02;;;;;;;17.38;9.38;;;;;;;;;;5139457;27;20066;-71
2022/09/09 08:29:28;;;;;;;16.95;9.15;;;;;;;;;;5140317;27;20466;-70
2022/09/09 08:31:57;;;;;;;17.52;9.48;;;;;;;;;;5137474;27;20043;-70
2022/09/09 08:34:24;;;;;;;19.80;9.77;;;;;;;;;;5136171;27;20107;-71
2022/09/09 08:36:50;;;;;;;18.48;8.98;;;;;;;;;;5146533;27;20070;-71
2022/09/09 08:39:18;;;;;;;18.33;8.70;;;;;;;;;;5146475;27;20039;-73
2022/09/09 08:42:02;;;;;;;19.38;8.80;;;;;;;;;;5150609;27;20046;-69
2022/09/09 08:44:35;;;;;;;17.70;8.18;;;;;;;;;;5146906;27;20403;-70
2022/09/09 08:47:01;;;;;;;16.73;8.70;;;;;;;;;;5148262;27;20128;-69
2022/09/09 08:49:47;;;;;;;15.77;8.48;;;;;;;;;;5129968;27;20388;-73
2022/09/09 08:52:17;;;;;;;22.42;9.10;;;;;;;;;;5130827;27;20073;-74
2022/09/09 08:54:44;;;;;;;14.93;8.80;;;;;;;;;;5112383;27;20380;-72
2022/09/09 08:57:14;;;;;;;18.02;9.20;;;;;;;;;;5111815;27;20288;-68
2022/09/09 08:59:40;;;;;;;14.02;8.20;;;;;;;;;;5147898;27;20454;-70
2022/09/09 09:02:24;;;;;;;18.45;8.15;;;;;;;;;;5128386;27;20507;-70
2022/09/09 09:04:56;;;;;;;15.48;8.02;;;;;;;;;;5147234;27;20059;-68
2022/09/09 09:07:31;;;;;;;19.33;8.77;;;;;;;;;;5146314;27;20123;-72
2022/09/09 09:10:02;;;;;;;15.55;8.20;;;;;;;;;;5145414;27;20173;-73
2022/09/09 09:12:30;;;;;;;18.00;8.07;;;;;;;;;;5128457;27;20051;-74
2022/09/09 09:14:58;;;;;;;19.33;8.77;;;;;;;;;;5137504;27;20350;-73
2022/09/09 09:17:27;;;;;;;16.60;8.27;;;;;;;;;;5117925;27;20318;-68
2022/09/09 09:19:53;;;;;;;17.85;8.15;;;;;;;;;;5148328;27;20065;-73
2022/09/09 09:22:23;;;;;;;;;;;;;;;;;;5149414;27;20135;-72
2022/09/09 09:24:56;;;;;;;16.77;7.65;;;;;;;;;;5149612;27;20262;-73
2022/09/09 09:27:33;;;;;;;17.95;7.75;;;;;;;;;;5149645;27;20102;-73
2022/09/09 09:30:01;;;;;;;22.13;9.18;;;;;;;;;;5129493;27;20074;-71
2022/09/09 09:32:28;;;;;;;16.00;8.20;;;;;;;;;;5130723;27;20120;-74
2022/09/09 09:34:58;;;;;;;23.85;9.27;;;;;;;;;;5150181;27;20046;-69
2022/09/09 09:37:29;;;;;;;20.70;7.93;;;;;;;;;;5149919;27;20050;-72
2022/09/09 09:39:55;;;;;;;20.52;8.75;;;;;;;;;;5147719;27;20062;-72
2022/09/09 09:42:22;;;;;;;;;;;;;;;;;;5150143;27;20061;-72
2022/09/09 09:44:48;;;;;;;16.95;7.80;;;;;;;;;;5150299;27;19919;-70
2022/09/09 09:47:14;;;;;;;;;;;;;;;;;;5149825;27;20316;-72
2022/09/09 09:49:51;;;;;;;17.67;8.10;;;;;;;;;;5148846;27;19926;-68
2022/09/09 09:52:23;;;;;;;18.27;7.88;;;;;;;;;;5149523;27;20150;-70
2022/09/09 09:54:49;;;;;;;18.70;8.13;;;;;;;;;;5149510;27;20358;-72
2022/09/09 09:57:15;;;;;;;;;;;;;;;;;;5129854;27;20054;-73
2022/09/09 09:59:42;;;;;;;18.00;8.52;;;;;;;;;;5147883;27;20280;-73
2022/09/09 10:02:26;;;;;;;18.40;8.23;;;;;;;;;;5149180;27;20085;-69
2022/09/09 10:05:06;;;;;;;20.40;7.82;;;;;;;;;;5149769;27;20126;-71
2022/09/09 10:07:33;;;;;;;17.30;7.55;;;;;;;;;;5149142;27;20046;-69
2022/09/09 10:09:59;;;;;;;17.40;7.50;;;;;;;;;;5148346;27;20490;-69
2022/09/09 10:12:26;;;;;;;;;;;;;;;;;;5147730;27;20058;-73
2022/09/09 10:15:08;;;;;;;16.30;6.22;;;;;;;;;;5149903;27;20281;-73
2022/09/09 10:17:40;;;;;;;18.25;6.65;;;;;;;;;;5149255;27;20115;-71
2022/09/09 10:20:30;;;;;;;18.92;6.70;;;;;;;;;;5151346;27;20114;-73
2022/09/09 10:23:17;;;;;;;19.90;5.60;;;;;;;;;;5152864;27;20047;-73
2022/09/09 10:25:52;;;;;;;15.43;5.35;;;;;;;;;;5100982;27;20054;-71
2022/09/09 10:28:43;;;;;;;12.60;4.70;;;;;;;;;;5153855;27;20117;-71
2022/09/09 10:31:09;;;;;;;15.82;4.82;;;;;;;;;;5152964;27;20205;-70
2022/09/09 10:33:47;;;;;;;18.77;5.10;;;;;;;;;;5152013;27;20054;-70
2022/09/09 10:36:17;;;;;;;17.65;5.20;;;;;;;;;;5134305;27;20058;-75
2022/09/09 10:38:47;;;;;;;16.60;5.40;;;;;;;;;;5153314;27;20068;-69
2022/09/09 10:41:19;;;;;;;20.17;5.38;;;;;;;;;;5152263;27;20150;-69
2022/09/09 10:44:05;;;;;;;16.58;4.25;;;;;;;;;;5151845;27;20287;-75
2022/09/09 10:46:40;;;;;;;12.40;4.10;;;;;;;;;;5153107;27;20054;-74
2022/09/09 10:49:24;;;;;;;20.30;4.50;;;;;;;;;;5153235;27;20076;-67
2022/09/09 10:51:50;;;;;;;15.23;4.00;;;;;;;;;;5134810;27;20137;-70
2022/09/09 10:54:26;;;;;;;15.82;3.85;;;;;;;;;;5150808;27;20118;-68
2022/09/09 10:56:58;;;;;;;15.70;4.13;;;;;;;;;;5152263;27;20090;-76
2022/09/09 10:59:26;;;;;;;17.55;4.60;;;;;;;;;;5152218;27;20138;-72
2022/09/09 11:01:57;;;;;;;15.50;4.30;;;;;;;;;;5152902;27;20109;-71
2022/09/09 11:04:50;;;;;;;13.40;4.40;;;;;;;;;;5133578;27;20435;-73
2022/09/09 11:07:22;;;;;;;13.80;3.97;;;;;;;;;;5113463;27;20058;-73
2022/09/09 11:09:53;;;;;;;14.07;3.72;;;;;;;;;;5151457;27;20062;-71
2022/09/09 11:12:20;;;;;;;15.02;3.85;;;;;;;;;;5152449;27;20042;-69
2022/09/09 11:14:57;;;;;;;13.38;3.40;;;;;;;;;;5152590;27;20098;-72
2022/09/09 11:17:25;;;;;;;14.07;3.53;;;;;;;;;;5152948;27;20073;-75
2022/09/09 11:19:51;;;;;;;11.63;3.20;;;;;;;;;;5151407;27;20142;-76
2022/09/09 11:22:29;;;;;;;12.30;3.20;;;;;;;;;;5152652;27;20042;-72
2022/09/09 11:24:59;;;;;;;14.25;3.35;;;;;;;;;;5152210;27;20046;-70
2022/09/09 11:27:32;;;;;;;11.75;3.10;;;;;;;;;;5147869;27;20067;-75
2022/09/09 11:30:21;;;;;;;11.70;3.22;;;;;;;;;;5128243;27;20403;-73
2022/09/09 11:33:08;;;;;;;10.85;2.92;;;;;;;;;;5123190;27;20683;-76
2022/09/09 11:35:34;;;;;;;;;;;;;;;;;;5144940;27;20035;-69
2022/09/09 11:38:19;;;;;;;11.77;3.25;;;;;;;;;;5136438;27;20339;-74
2022/09/09 11:40:47;;;;;;;12.80;3.60;;;;;;;;;;5136136;27;20142;-71
2022/09/09 11:43:21;;;;;;;13.63;3.80;;;;;;;;;;5141464;27;20050;-69
2022/09/09 11:45:58;;;;;;;13.07;3.08;;;;;;;;;;5135844;27;20039;-72
2022/09/09 11:48:37;;;;;;;14.05;3.72;;;;;;;;;;5140348;27;20415;-73
2022/09/09 11:51:13;;;;;;;13.50;3.58;;;;;;;;;;5118661;27;20039;-80
2022/09/09 11:53:50;;;;;;;11.88;3.38;;;;;;;;;;5137395;27;20174;-75
2022/09/09 11:56:25;;;;;;;14.88;3.58;;;;;;;;;;5146888;27;20043;-79
2022/09/09 11:58:55;;;;;;;12.65;3.58;;;;;;;;;;5131669;27;20046;-71
2022/09/09 12:01:35;;;;;;;11.57;3.15;;;;;;;;;;5116703;27;20043;-68
2022/09/09 12:04:13;;;;;;;13.70;3.10;;;;;;;;;;5134021;27;20050;-71
2022/09/09 12:06:46;;;;;;;11.30;3.30;;;;;;;;;;5140760;27;20051;-71
2022/09/09 12:09:24;;;;;;;14.10;3.60;;;;;;;;;;5150906;27;20046;-70
2022/09/09 12:11:51;;;;;;;11.93;3.35;;;;;;;;;;5149858;27;20054;-72
2022/09/09 12:14:35;;;;;;;13.27;3.22;;;;;;;;;;5151293;27;20053;-71
2022/09/09 12:17:16;;;;;;;11.93;3.35;;;;;;;;;;5151859;27;20539;-65
2022/09/09 12:19:43;;;;;;;15.02;3.63;;;;;;;;;;5130770;27;21646;-72
2022/09/09 12:22:17;;;;;;;13.85;3.58;;;;;;;;;;5150505;27;20465;-69
2022/09/09 12:24:46;;;;;;;13.63;3.60;;;;;;;;;;5151702;27;20122;-73
2022/09/09 12:27:20;;;;;;;14.95;3.05;;;;;;;;;;5151184;27;20057;-72
2022/09/09 12:29:53;;;;;;;11.25;3.00;;;;;;;;;;5147171;27;20488;-72
2022/09/09 12:32:26;;;;;;;11.38;3.10;;;;;;;;;;5139058;27;20111;-73
2022/09/09 12:34:54;;;;;;;14.35;3.25;;;;;;;;;;5140606;27;20047;-70
2022/09/09 12:37:20;;;;;;;13.13;3.63;;;;;;;;;;5117509;27;20081;-72
2022/09/09 12:39:51;;;;;;;13.65;3.25;;;;;;;;;;5137810;27;20103;-76
2022/09/09 12:42:19;;;;;;;13.48;2.80;;;;;;;;;;5136790;27;20054;-76
2022/09/09 12:44:52;;;;;;;10.93;2.88;;;;;;;;;;5140106;27;20087;-69
2022/09/09 12:47:19;;;;;;;10.63;3.00;;;;;;;;;;5134653;27;20486;-69
2022/09/09 12:49:45;;;;;;;11.18;2.70;;;;;;;;;;5128879;27;20446;-71
2022/09/09 12:52:17;;;;;;;11.18;2.80;;;;;;;;;;5146746;27;20050;-75
2022/09/09 12:54:47;;;;;;;14.38;3.13;;;;;;;;;;5142312;27;20121;-73
2022/09/09 12:57:14;;;;;;;10.52;3.33;;;;;;;;;;5150666;27;20133;-77
2022/09/09 12:59:41;;;;;;;13.63;3.00;;;;;;;;;;5146785;27;20046;-73
2022/09/09 13:02:17;;;;;;;14.27;3.70;;;;;;;;;;5145292;27;20324;-66
2022/09/09 13:04:44;;;;;;;13.43;3.35;;;;;;;;;;5114791;27;20098;-69
2022/09/09 13:07:13;;;;;;;9.25;2.85;;;;;;;;;;5129711;27;20463;-74
2022/09/09 13:09:40;;;;;;;11.10;3.13;;;;;;;;;;5125445;27;20046;-72
2022/09/09 13:12:11;;;;;;;10.98;3.30;;;;;;;;;;5131262;27;20510;-71
2022/09/09 13:14:38;;;;;;;12.80;3.25;;;;;;;;;;5147411;27;20038;-72
2022/09/09 13:17:04;;;;;;;;;;;;;;;;;;5149900;27;20038;-72
2022/09/09 13:19:32;;;;;;;12.15;3.80;;;;;;;;;;5146651;27;19929;-67
2022/09/09 13:21:58;;;;;;;11.95;4.03;;;;;;;;;;5148425;27;20049;-71
2022/09/09 13:24:24;;;;;;;;;;;;;;;;;;5113131;27;20367;-77
2022/09/09 13:26:58;;;;;;;14.30;3.60;;;;;;;;;;5141452;27;19923;-71
2022/09/09 13:29:24;;;;;;;13.38;3.40;;;;;;;;;;5130292;27;20077;-74
2022/09/09 13:31:52;;;;;;;12.60;3.20;;;;;;;;;;5145996;27;20054;-75
2022/09/09 13:34:49;;;;;;;14.00;4.03;;;;;;;;;;5147693;27;20046;-70
2022/09/09 13:37:38;;;;;;;11.50;3.20;;;;;;;;;;5132634;27;20054;-75
2022/09/09 13:40:06;;;;;;;12.30;2.97;;;;;;;;;;5118850;27;20352;-74
2022/09/09 13:42:35;;;;;;;11.98;3.22;;;;;;;;;;5149272;27;20065;-76
2022/09/09 13:45:04;;;;;;;9.45;3.05;;;;;;;;;;5139102;27;20532;-76
2022/09/09 13:47:34;;;;;;;11.93;2.83;;;;;;;;;;5139515;27;20127;-75
2022/09/09 13:50:10;;;;;;;12.52;3.08;;;;;;;;;;5138825;27;20034;-75
2022/09/09 13:52:36;;;;;;;14.00;3.38;;;;;;;;;;5137792;27;20046;-75
2022/09/09 13:55:03;;;;;;;11.30;2.80;;;;;;;;;;5099463;27;20145;-75
2022/09/09 13:57:29;;;;;;;;;;;;;;;;;;5137812;27;20134;-72
2022/09/09 13:59:55;;;;;;;11.68;3.08;;;;;;;;;;5137647;27;20236;-77
2022/09/09 14:02:22;;;;;;;12.40;2.90;;;;;;;;;;5144402;27;20122;-79
2022/09/09 14:04:50;;;;;;;11.05;2.92;;;;;;;;;;5147062;27;20477;-72
2022/09/09 14:07:18;;;;;;;10.65;2.35;;;;;;;;;;5134011;27;20145;-72
2022/09/09 14:09:45;;;;;;;9.15;2.30;;;;;;;;;;5133388;27;20043;-74
2022/09/09 14:12:11;;;;;;;10.68;2.45;;;;;;;;;;5137559;27;20503;-72
2022/09/09 14:14:38;;;;;;;12.15;2.60;;;;;;;;;;5142761;27;20039;-76
2022/09/09 14:17:04;;;;;;;11.90;2.50;;;;;;;;;;5143894;27;20126;-76
2022/09/09 14:19:30;;;;;;;;;;;;;;;;;;5133049;27;20054;-73
2022/09/09 14:21:57;;;;;;;10.98;2.50;;;;;;;;;;5138605;27;19923;-70
2022/09/09 14:24:23;;;;;;;9.38;2.53;;;;;;;;;;5137480;27;20039;-75
2022/09/09 14:26:49;;;;;;;;;;;;;;;;;;5120027;27;20139;-73
2022/09/09 14:29:15;;;;;;;12.25;3.60;;;;;;;;;;5146513;27;20017;-81
2022/09/09 14:31:41;;;;;;;9.18;2.50;;;;;;;;;;5116074;28;20072;-70
2022/09/09 14:34:07;;;;;;;11.55;2.30;;;;;;;;;;5131463;27;20043;-70
2022/09/09 14:36:33;;;;;;;;;;;;;;;;;;5133506;27;20203;-76
2022/09/09 14:39:02;;;;;;;12.35;3.35;;;;;;;;;;5143298;27;19930;-75
2022/09/09 14:41:31;;;;;;;10.68;2.63;;;;;;;;;;5130572;27;20112;-69
2022/09/09 14:43:58;;;;;;;8.80;2.53;;;;;;;;;;5120274;28;20125;-75
2022/09/09 14:46:24;;;;;;;8.23;2.35;;;;;;;;;;5118296;27;20058;-69
2022/09/09 14:48:51;;;;;;;5.93;1.90;;;;;;;;;;5135476;27;20082;-76